sensor_id;sensor_type;location;lat;lon;timestamp;P1;durP1;ratioP1;P2;durP2;ratioP2
82900;SDS011;72673;50.822;3.280;2024-03-23T00:53:07;14.85;;;6.53;;
82900;SDS011;72673;50.822;3.280;2024-03-23T00:55:33;15.98;;;6.28;;
82900;SDS011;72673;50.822;3.280;2024-03-23T00:57:59;15.23;;;5.95;;
82900;SDS011;72673;50.822;3.280;2024-03-23T01:00:24;21.80;;;6.53;;
82900;SDS011;72673;50.822;3.280;2024-03-23T01:02:50;16.83;;;6.70;;
82900;SDS011;72673;50.822;3.280;2024-03-23T01:05:16;22.33;;;6.40;;
82900;SDS011;72673;50.822;3.280;2024-03-23T01:07:41;21.65;;;6.30;;
82900;SDS011;72673;50.822;3.280;2024-03-23T01:10:07;16.67;;;5.72;;
82900;SDS011;72673;50.822;3.280;2024-03-23T01:12:33;21.85;;;6.10;;
82900;SDS011;72673;50.822;3.280;2024-03-23T01:14:58;21.60;;;6.63;;
82900;SDS011;72673;50.822;3.280;2024-03-23T01:17:24;19.15;;;6.28;;
82900;SDS011;72673;50.822;3.280;2024-03-23T01:19:50;18.98;;;5.53;;
82900;SDS011;72673;50.822;3.280;2024-03-23T01:22:15;21.33;;;5.80;;
82900;SDS011;72673;50.822;3.280;2024-03-23T01:24:41;17.88;;;5.00;;
82900;SDS011;72673;50.822;3.280;2024-03-23T01:27:08;13.70;;;4.97;;
82900;SDS011;72673;50.822;3.280;2024-03-23T01:29:33;18.55;;;4.78;;
82900;SDS011;72673;50.822;3.280;2024-03-23T01:31:59;19.40;;;5.53;;
82900;SDS011;72673;50.822;3.280;2024-03-23T01:34:25;14.35;;;4.47;;
82900;SDS011;72673;50.822;3.280;2024-03-23T01:36:50;16.73;;;4.75;;
82900;SDS011;72673;50.822;3.280;2024-03-23T01:39:16;16.35;;;4.55;;
82900;SDS011;72673;50.822;3.280;2024-03-23T01:41:42;20.13;;;4.57;;
82900;SDS011;72673;50.822;3.280;2024-03-23T01:44:08;11.93;;;4.07;;
82900;SDS011;72673;50.822;3.280;2024-03-23T01:46:35;16.15;;;4.22;;
82900;SDS011;72673;50.822;3.280;2024-03-23T01:49:02;12.65;;;4.07;;
82900;SDS011;72673;50.822;3.280;2024-03-23T01:51:29;15.13;;;3.80;;
82900;SDS011;72673;50.822;3.280;2024-03-23T01:53:55;14.18;;;3.35;;
82900;SDS011;72673;50.822;3.280;2024-03-23T01:56:22;22.20;;;3.90;;
82900;SDS011;72673;50.822;3.280;2024-03-23T01:58:48;15.02;;;4.22;;
82900;SDS011;72673;50.822;3.280;2024-03-23T02:01:13;11.35;;;3.20;;
82900;SDS011;72673;50.822;3.280;2024-03-23T02:03:39;10.73;;;3.13;;
82900;SDS011;72673;50.822;3.280;2024-03-23T02:06:05;10.25;;;2.45;;
82900;SDS011;72673;50.822;3.280;2024-03-23T02:08:32;13.15;;;2.78;;
82900;SDS011;72673;50.822;3.280;2024-03-23T02:10:59;15.55;;;2.83;;
82900;SDS011;72673;50.822;3.280;2024-03-23T02:13:24;18.15;;;2.60;;
82900;SDS011;72673;50.822;3.280;2024-03-23T02:15:50;16.60;;;2.83;;
82900;SDS011;72673;50.822;3.280;2024-03-23T02:18:16;12.93;;;2.95;;
82900;SDS011;72673;50.822;3.280;2024-03-23T02:20:41;19.98;;;2.78;;
82900;SDS011;72673;50.822;3.280;2024-03-23T02:23:14;9.65;;;2.13;;
82900;SDS011;72673;50.822;3.280;2024-03-23T02:25:40;10.00;;;2.20;;
82900;SDS011;72673;50.822;3.280;2024-03-23T02:28:06;11.38;;;2.45;;
82900;SDS011;72673;50.822;3.280;2024-03-23T02:30:32;11.07;;;2.55;;
82900;SDS011;72673;50.822;3.280;2024-03-23T02:32:58;15.23;;;2.40;;
82900;SDS011;72673;50.822;3.280;2024-03-23T02:35:23;18.35;;;2.90;;
82900;SDS011;72673;50.822;3.280;2024-03-23T02:37:49;14.38;;;2.50;;
82900;SDS011;72673;50.822;3.280;2024-03-23T02:40:18;10.48;;;2.17;;
82900;SDS011;72673;50.822;3.280;2024-03-23T02:42:45;10.82;;;2.38;;
82900;SDS011;72673;50.822;3.280;2024-03-23T02:45:11;10.80;;;2.45;;
82900;SDS011;72673;50.822;3.280;2024-03-23T02:47:37;14.98;;;2.70;;
82900;SDS011;72673;50.822;3.280;2024-03-23T02:50:03;13.77;;;2.08;;
82900;SDS011;72673;50.822;3.280;2024-03-23T02:52:29;14.73;;;2.67;;
82900;SDS011;72673;50.822;3.280;2024-03-23T02:54:55;14.15;;;2.28;;
82900;SDS011;72673;50.822;3.280;2024-03-23T02:57:21;17.38;;;2.17;;
82900;SDS011;72673;50.822;3.280;2024-03-23T02:59:47;11.38;;;2.60;;
82900;SDS011;72673;50.822;3.280;2024-03-23T03:02:13;9.80;;;2.60;;
82900;SDS011;72673;50.822;3.280;2024-03-23T03:04:40;13.07;;;2.13;;
82900;SDS011;72673;50.822;3.280;2024-03-23T03:07:06;14.38;;;2.40;;
82900;SDS011;72673;50.822;3.280;2024-03-23T03:09:32;12.07;;;1.90;;
82900;SDS011;72673;50.822;3.280;2024-03-23T03:12:00;17.35;;;3.17;;
82900;SDS011;72673;50.822;3.280;2024-03-23T03:14:28;15.48;;;2.63;;
82900;SDS011;72673;50.822;3.280;2024-03-23T03:16:54;7.40;;;2.42;;
82900;SDS011;72673;50.822;3.280;2024-03-23T03:19:20;14.57;;;2.40;;
82900;SDS011;72673;50.822;3.280;2024-03-23T03:21:46;9.32;;;2.10;;
82900;SDS011;72673;50.822;3.280;2024-03-23T03:24:12;16.50;;;2.47;;
82900;SDS011;72673;50.822;3.280;2024-03-23T03:26:38;15.18;;;1.95;;
82900;SDS011;72673;50.822;3.280;2024-03-23T03:29:04;11.50;;;2.38;;
82900;SDS011;72673;50.822;3.280;2024-03-23T03:31:30;13.68;;;1.90;;
82900;SDS011;72673;50.822;3.280;2024-03-23T03:33:56;10.88;;;1.25;;
82900;SDS011;72673;50.822;3.280;2024-03-23T03:36:21;16.48;;;2.90;;
82900;SDS011;72673;50.822;3.280;2024-03-23T03:38:47;8.32;;;1.77;;
82900;SDS011;72673;50.822;3.280;2024-03-23T03:41:13;14.27;;;2.42;;
82900;SDS011;72673;50.822;3.280;2024-03-23T03:43:38;15.85;;;1.55;;
82900;SDS011;72673;50.822;3.280;2024-03-23T03:46:04;14.90;;;2.38;;
82900;SDS011;72673;50.822;3.280;2024-03-23T03:48:30;10.23;;;2.35;;
82900;SDS011;72673;50.822;3.280;2024-03-23T03:50:56;14.80;;;2.63;;
82900;SDS011;72673;50.822;3.280;2024-03-23T03:53:21;9.23;;;2.40;;
82900;SDS011;72673;50.822;3.280;2024-03-23T03:55:47;9.52;;;2.60;;
82900;SDS011;72673;50.822;3.280;2024-03-23T03:58:13;10.38;;;2.25;;
82900;SDS011;72673;50.822;3.280;2024-03-23T04:00:39;13.35;;;2.60;;
82900;SDS011;72673;50.822;3.280;2024-03-23T04:03:05;15.23;;;2.58;;
82900;SDS011;72673;50.822;3.280;2024-03-23T04:05:30;11.38;;;2.53;;
82900;SDS011;72673;50.822;3.280;2024-03-23T04:07:56;13.48;;;3.08;;
82900;SDS011;72673;50.822;3.280;2024-03-23T04:10:22;10.55;;;2.67;;
82900;SDS011;72673;50.822;3.280;2024-03-23T04:12:47;14.85;;;2.33;;
82900;SDS011;72673;50.822;3.280;2024-03-23T04:15:13;12.05;;;1.98;;
82900;SDS011;72673;50.822;3.280;2024-03-23T04:17:39;11.07;;;2.33;;
82900;SDS011;72673;50.822;3.280;2024-03-23T04:20:07;16.20;;;2.63;;
82900;SDS011;72673;50.822;3.280;2024-03-23T04:22:36;10.82;;;2.33;;
82900;SDS011;72673;50.822;3.280;2024-03-23T04:25:02;9.68;;;1.88;;
82900;SDS011;72673;50.822;3.280;2024-03-23T04:27:37;13.32;;;2.47;;
82900;SDS011;72673;50.822;3.280;2024-03-23T04:30:03;15.18;;;2.13;;
82900;SDS011;72673;50.822;3.280;2024-03-23T04:32:34;12.73;;;1.98;;
82900;SDS011;72673;50.822;3.280;2024-03-23T04:35:00;15.25;;;2.55;;
82900;SDS011;72673;50.822;3.280;2024-03-23T04:37:26;13.70;;;2.33;;
82900;SDS011;72673;50.822;3.280;2024-03-23T04:39:51;15.20;;;2.38;;
82900;SDS011;72673;50.822;3.280;2024-03-23T04:42:17;11.77;;;2.10;;
82900;SDS011;72673;50.822;3.280;2024-03-23T04:44:43;14.73;;;2.15;;
82900;SDS011;72673;50.822;3.280;2024-03-23T04:47:10;8.57;;;2.28;;
82900;SDS011;72673;50.822;3.280;2024-03-23T04:49:36;14.63;;;1.98;;
82900;SDS011;72673;50.822;3.280;2024-03-23T04:52:04;10.57;;;1.98;;
82900;SDS011;72673;50.822;3.280;2024-03-23T04:54:30;10.27;;;1.83;;
82900;SDS011;72673;50.822;3.280;2024-03-23T04:56:57;17.75;;;2.42;;
82900;SDS011;72673;50.822;3.280;2024-03-23T04:59:23;17.42;;;2.88;;
82900;SDS011;72673;50.822;3.280;2024-03-23T05:01:49;14.25;;;1.77;;
82900;SDS011;72673;50.822;3.280;2024-03-23T05:04:14;10.93;;;2.72;;
82900;SDS011;72673;50.822;3.280;2024-03-23T05:06:40;17.88;;;2.42;;
82900;SDS011;72673;50.822;3.280;2024-03-23T05:09:06;20.95;;;2.05;;
82900;SDS011;72673;50.822;3.280;2024-03-23T05:11:32;16.23;;;2.22;;
82900;SDS011;72673;50.822;3.280;2024-03-23T05:13:58;20.48;;;1.95;;
82900;SDS011;72673;50.822;3.280;2024-03-23T05:16:25;13.70;;;1.80;;
82900;SDS011;72673;50.822;3.280;2024-03-23T05:18:51;13.68;;;2.33;;
82900;SDS011;72673;50.822;3.280;2024-03-23T05:21:17;13.82;;;2.05;;
82900;SDS011;72673;50.822;3.280;2024-03-23T05:23:42;13.32;;;1.83;;
82900;SDS011;72673;50.822;3.280;2024-03-23T05:26:08;11.50;;;1.90;;
82900;SDS011;72673;50.822;3.280;2024-03-23T05:28:35;12.77;;;1.50;;
82900;SDS011;72673;50.822;3.280;2024-03-23T05:31:00;13.73;;;1.80;;
82900;SDS011;72673;50.822;3.280;2024-03-23T05:33:26;12.95;;;1.70;;
82900;SDS011;72673;50.822;3.280;2024-03-23T05:36:01;10.88;;;1.60;;
82900;SDS011;72673;50.822;3.280;2024-03-23T05:38:27;10.05;;;1.92;;
82900;SDS011;72673;50.822;3.280;2024-03-23T05:40:56;6.28;;;1.40;;
82900;SDS011;72673;50.822;3.280;2024-03-23T05:43:22;9.07;;;1.70;;
82900;SDS011;72673;50.822;3.280;2024-03-23T05:48:20;15.75;;;2.50;;
82900;SDS011;72673;50.822;3.280;2024-03-23T05:50:47;14.85;;;2.35;;
82900;SDS011;72673;50.822;3.280;2024-03-23T05:53:14;11.80;;;2.10;;
82900;SDS011;72673;50.822;3.280;2024-03-23T05:55:45;12.73;;;2.20;;
82900;SDS011;72673;50.822;3.280;2024-03-23T05:58:12;12.40;;;2.20;;
82900;SDS011;72673;50.822;3.280;2024-03-23T06:00:39;16.30;;;2.25;;
82900;SDS011;72673;50.822;3.280;2024-03-23T06:03:05;9.95;;;1.27;;
82900;SDS011;72673;50.822;3.280;2024-03-23T06:05:31;12.95;;;2.92;;
82900;SDS011;72673;50.822;3.280;2024-03-23T06:07:57;6.95;;;1.50;;
82900;SDS011;72673;50.822;3.280;2024-03-23T06:10:23;9.75;;;1.52;;
82900;SDS011;72673;50.822;3.280;2024-03-23T06:12:48;13.30;;;2.08;;
82900;SDS011;72673;50.822;3.280;2024-03-23T06:15:17;11.80;;;1.85;;
82900;SDS011;72673;50.822;3.280;2024-03-23T06:17:45;10.27;;;1.33;;
82900;SDS011;72673;50.822;3.280;2024-03-23T06:20:11;13.85;;;2.38;;
82900;SDS011;72673;50.822;3.280;2024-03-23T06:22:38;10.30;;;1.45;;
82900;SDS011;72673;50.822;3.280;2024-03-23T06:25:04;15.30;;;1.92;;
82900;SDS011;72673;50.822;3.280;2024-03-23T06:27:30;15.43;;;1.80;;
82900;SDS011;72673;50.822;3.280;2024-03-23T06:29:57;9.50;;;1.35;;
82900;SDS011;72673;50.822;3.280;2024-03-23T06:32:24;12.73;;;1.70;;
82900;SDS011;72673;50.822;3.280;2024-03-23T06:34:49;15.10;;;2.67;;
82900;SDS011;72673;50.822;3.280;2024-03-23T06:37:15;16.90;;;2.20;;
82900;SDS011;72673;50.822;3.280;2024-03-23T06:39:41;17.40;;;2.10;;
82900;SDS011;72673;50.822;3.280;2024-03-23T06:42:06;7.25;;;1.75;;
82900;SDS011;72673;50.822;3.280;2024-03-23T06:44:33;11.93;;;1.65;;
82900;SDS011;72673;50.822;3.280;2024-03-23T06:46:59;6.30;;;1.90;;
82900;SDS011;72673;50.822;3.280;2024-03-23T06:49:25;18.05;;;2.20;;
82900;SDS011;72673;50.822;3.280;2024-03-23T06:51:51;17.98;;;2.47;;
82900;SDS011;72673;50.822;3.280;2024-03-23T06:54:17;16.40;;;1.92;;
82900;SDS011;72673;50.822;3.280;2024-03-23T06:56:44;6.20;;;1.05;;
82900;SDS011;72673;50.822;3.280;2024-03-23T06:59:10;11.57;;;1.92;;
82900;SDS011;72673;50.822;3.280;2024-03-23T07:01:35;6.30;;;1.20;;
82900;SDS011;72673;50.822;3.280;2024-03-23T07:04:01;6.22;;;1.60;;
82900;SDS011;72673;50.822;3.280;2024-03-23T07:06:27;7.88;;;1.60;;
82900;SDS011;72673;50.822;3.280;2024-03-23T07:08:53;9.02;;;1.42;;
82900;SDS011;72673;50.822;3.280;2024-03-23T07:11:19;12.40;;;1.45;;
82900;SDS011;72673;50.822;3.280;2024-03-23T07:13:46;17.70;;;1.70;;
82900;SDS011;72673;50.822;3.280;2024-03-23T07:16:14;10.13;;;2.03;;
82900;SDS011;72673;50.822;3.280;2024-03-23T07:18:41;12.90;;;1.50;;
82900;SDS011;72673;50.822;3.280;2024-03-23T07:21:07;11.45;;;1.45;;
82900;SDS011;72673;50.822;3.280;2024-03-23T07:23:33;8.00;;;1.50;;
82900;SDS011;72673;50.822;3.280;2024-03-23T07:25:59;10.48;;;1.88;;
82900;SDS011;72673;50.822;3.280;2024-03-23T07:28:26;6.35;;;1.52;;
82900;SDS011;72673;50.822;3.280;2024-03-23T07:31:12;12.48;;;2.20;;
82900;SDS011;72673;50.822;3.280;2024-03-23T07:33:46;7.25;;;1.90;;
82900;SDS011;72673;50.822;3.280;2024-03-23T07:36:13;6.45;;;1.17;;
82900;SDS011;72673;50.822;3.280;2024-03-23T07:38:42;6.93;;;1.80;;
82900;SDS011;72673;50.822;3.280;2024-03-23T07:41:13;8.07;;;1.95;;
82900;SDS011;72673;50.822;3.280;2024-03-23T07:43:42;8.30;;;1.95;;
82900;SDS011;72673;50.822;3.280;2024-03-23T07:46:08;8.07;;;1.40;;
82900;SDS011;72673;50.822;3.280;2024-03-23T07:48:34;13.50;;;2.10;;
82900;SDS011;72673;50.822;3.280;2024-03-23T07:53:29;10.10;;;1.67;;
82900;SDS011;72673;50.822;3.280;2024-03-23T07:55:57;7.53;;;1.42;;
82900;SDS011;72673;50.822;3.280;2024-03-23T07:58:27;13.00;;;2.13;;
82900;SDS011;72673;50.822;3.280;2024-03-23T08:00:54;7.80;;;1.40;;
82900;SDS011;72673;50.822;3.280;2024-03-23T08:03:20;16.98;;;2.00;;
82900;SDS011;72673;50.822;3.280;2024-03-23T08:05:46;14.95;;;1.88;;
82900;SDS011;72673;50.822;3.280;2024-03-23T08:08:12;17.30;;;2.33;;
82900;SDS011;72673;50.822;3.280;2024-03-23T08:10:48;10.25;;;1.75;;
82900;SDS011;72673;50.822;3.280;2024-03-23T08:13:17;3.22;;;0.82;;
82900;SDS011;72673;50.822;3.280;2024-03-23T08:15:43;4.30;;;1.02;;
82900;SDS011;72673;50.822;3.280;2024-03-23T08:18:10;8.65;;;1.45;;
82900;SDS011;72673;50.822;3.280;2024-03-23T08:20:37;14.60;;;1.88;;
82900;SDS011;72673;50.822;3.280;2024-03-23T08:23:02;7.85;;;1.10;;
82900;SDS011;72673;50.822;3.280;2024-03-23T08:25:33;7.68;;;1.45;;
82900;SDS011;72673;50.822;3.280;2024-03-23T08:27:59;8.75;;;1.60;;
82900;SDS011;72673;50.822;3.280;2024-03-23T08:30:25;5.55;;;1.02;;
82900;SDS011;72673;50.822;3.280;2024-03-23T08:32:51;6.20;;;0.90;;
82900;SDS011;72673;50.822;3.280;2024-03-23T08:35:17;11.88;;;1.58;;
82900;SDS011;72673;50.822;3.280;2024-03-23T08:37:43;11.32;;;1.95;;
82900;SDS011;72673;50.822;3.280;2024-03-23T08:40:09;9.13;;;0.82;;
82900;SDS011;72673;50.822;3.280;2024-03-23T08:42:35;5.30;;;0.93;;
82900;SDS011;72673;50.822;3.280;2024-03-23T08:45:01;7.72;;;1.48;;
82900;SDS011;72673;50.822;3.280;2024-03-23T08:47:26;6.03;;;1.58;;
82900;SDS011;72673;50.822;3.280;2024-03-23T08:49:52;5.57;;;1.40;;
82900;SDS011;72673;50.822;3.280;2024-03-23T08:52:18;13.75;;;1.92;;
82900;SDS011;72673;50.822;3.280;2024-03-23T08:54:44;6.65;;;1.60;;
82900;SDS011;72673;50.822;3.280;2024-03-23T08:57:09;5.72;;;1.20;;
82900;SDS011;72673;50.822;3.280;2024-03-23T08:59:35;3.95;;;1.00;;
82900;SDS011;72673;50.822;3.280;2024-03-23T09:02:02;11.25;;;2.10;;
82900;SDS011;72673;50.822;3.280;2024-03-23T09:04:28;9.93;;;1.27;;
82900;SDS011;72673;50.822;3.280;2024-03-23T09:06:53;8.57;;;1.38;;
82900;SDS011;72673;50.822;3.280;2024-03-23T09:09:19;14.75;;;2.08;;
82900;SDS011;72673;50.822;3.280;2024-03-23T09:11:45;6.32;;;1.15;;
82900;SDS011;72673;50.822;3.280;2024-03-23T09:14:11;8.70;;;1.10;;
82900;SDS011;72673;50.822;3.280;2024-03-23T09:16:36;5.18;;;0.95;;
82900;SDS011;72673;50.822;3.280;2024-03-23T09:19:02;5.95;;;1.67;;
82900;SDS011;72673;50.822;3.280;2024-03-23T09:21:28;9.27;;;1.10;;
82900;SDS011;72673;50.822;3.280;2024-03-23T09:23:53;4.72;;;1.23;;
82900;SDS011;72673;50.822;3.280;2024-03-23T09:26:19;7.07;;;1.40;;
82900;SDS011;72673;50.822;3.280;2024-03-23T09:28:45;8.32;;;1.13;;
82900;SDS011;72673;50.822;3.280;2024-03-23T09:31:14;4.82;;;0.90;;
82900;SDS011;72673;50.822;3.280;2024-03-23T09:33:40;1.92;;;0.63;;
82900;SDS011;72673;50.822;3.280;2024-03-23T09:36:06;12.60;;;1.20;;
82900;SDS011;72673;50.822;3.280;2024-03-23T09:38:33;6.90;;;1.30;;
82900;SDS011;72673;50.822;3.280;2024-03-23T09:40:59;10.32;;;1.20;;
82900;SDS011;72673;50.822;3.280;2024-03-23T09:43:25;5.93;;;1.00;;
82900;SDS011;72673;50.822;3.280;2024-03-23T09:45:51;6.75;;;0.98;;
82900;SDS011;72673;50.822;3.280;2024-03-23T09:48:17;5.63;;;1.23;;
82900;SDS011;72673;50.822;3.280;2024-03-23T09:50:44;10.38;;;1.30;;
82900;SDS011;72673;50.822;3.280;2024-03-23T09:53:11;8.88;;;1.35;;
82900;SDS011;72673;50.822;3.280;2024-03-23T09:55:38;6.90;;;1.05;;
82900;SDS011;72673;50.822;3.280;2024-03-23T09:58:05;6.30;;;1.60;;
82900;SDS011;72673;50.822;3.280;2024-03-23T10:00:34;6.95;;;1.00;;
82900;SDS011;72673;50.822;3.280;2024-03-23T10:03:00;9.18;;;1.58;;
82900;SDS011;72673;50.822;3.280;2024-03-23T10:05:29;5.15;;;1.10;;
82900;SDS011;72673;50.822;3.280;2024-03-23T10:07:57;5.13;;;0.85;;
82900;SDS011;72673;50.822;3.280;2024-03-23T10:10:24;8.13;;;1.42;;
82900;SDS011;72673;50.822;3.280;2024-03-23T10:12:50;8.32;;;1.15;;
82900;SDS011;72673;50.822;3.280;2024-03-23T10:15:23;6.22;;;1.27;;
82900;SDS011;72673;50.822;3.280;2024-03-23T10:17:50;13.30;;;1.80;;
82900;SDS011;72673;50.822;3.280;2024-03-23T10:20:20;7.80;;;1.45;;
82900;SDS011;72673;50.822;3.280;2024-03-23T10:22:47;5.28;;;1.48;;
82900;SDS011;72673;50.822;3.280;2024-03-23T10:25:14;12.13;;;2.42;;
82900;SDS011;72673;50.822;3.280;2024-03-23T10:27:40;5.05;;;0.75;;
82900;SDS011;72673;50.822;3.280;2024-03-23T10:30:12;8.77;;;1.48;;
82900;SDS011;72673;50.822;3.280;2024-03-23T10:32:41;8.77;;;1.35;;
82900;SDS011;72673;50.822;3.280;2024-03-23T10:35:13;7.78;;;1.33;;
82900;SDS011;72673;50.822;3.280;2024-03-23T10:37:49;5.10;;;0.73;;
82900;SDS011;72673;50.822;3.280;2024-03-23T10:40:16;6.82;;;1.17;;
82900;SDS011;72673;50.822;3.280;2024-03-23T10:42:43;9.27;;;1.17;;
82900;SDS011;72673;50.822;3.280;2024-03-23T10:45:09;6.03;;;1.10;;
82900;SDS011;72673;50.822;3.280;2024-03-23T10:47:35;3.10;;;0.68;;
82900;SDS011;72673;50.822;3.280;2024-03-23T10:50:05;4.72;;;0.93;;
82900;SDS011;72673;50.822;3.280;2024-03-23T10:52:31;5.22;;;1.13;;
82900;SDS011;72673;50.822;3.280;2024-03-23T10:54:58;10.43;;;1.48;;
82900;SDS011;72673;50.822;3.280;2024-03-23T10:57:34;7.75;;;1.25;;
82900;SDS011;72673;50.822;3.280;2024-03-23T11:00:08;6.63;;;1.55;;
82900;SDS011;72673;50.822;3.280;2024-03-23T11:02:35;5.82;;;1.05;;
82900;SDS011;72673;50.822;3.280;2024-03-23T11:05:01;6.95;;;0.90;;
82900;SDS011;72673;50.822;3.280;2024-03-23T11:09:54;9.30;;;1.60;;
82900;SDS011;72673;50.822;3.280;2024-03-23T11:14:50;3.40;;;0.70;;
82900;SDS011;72673;50.822;3.280;2024-03-23T11:17:20;7.13;;;1.48;;
82900;SDS011;72673;50.822;3.280;2024-03-23T11:22:37;7.00;;;1.10;;
82900;SDS011;72673;50.822;3.280;2024-03-23T11:25:15;5.18;;;1.02;;
82900;SDS011;72673;50.822;3.280;2024-03-23T11:27:43;6.82;;;1.17;;
82900;SDS011;72673;50.822;3.280;2024-03-23T11:30:11;7.88;;;1.10;;
82900;SDS011;72673;50.822;3.280;2024-03-23T11:32:37;7.95;;;1.70;;
82900;SDS011;72673;50.822;3.280;2024-03-23T11:35:04;5.20;;;0.75;;
82900;SDS011;72673;50.822;3.280;2024-03-23T11:37:29;7.90;;;1.05;;
82900;SDS011;72673;50.822;3.280;2024-03-23T11:39:56;5.32;;;1.00;;
82900;SDS011;72673;50.822;3.280;2024-03-23T11:42:21;6.35;;;1.13;;
82900;SDS011;72673;50.822;3.280;2024-03-23T11:44:47;12.18;;;1.67;;
82900;SDS011;72673;50.822;3.280;2024-03-23T11:47:12;6.05;;;1.15;;
82900;SDS011;72673;50.822;3.280;2024-03-23T11:49:38;4.15;;;0.95;;
82900;SDS011;72673;50.822;3.280;2024-03-23T11:52:06;10.35;;;1.60;;
82900;SDS011;72673;50.822;3.280;2024-03-23T11:54:32;10.70;;;1.45;;
82900;SDS011;72673;50.822;3.280;2024-03-23T11:56:59;11.82;;;1.85;;
82900;SDS011;72673;50.822;3.280;2024-03-23T12:02:06;8.13;;;1.10;;
82900;SDS011;72673;50.822;3.280;2024-03-23T12:04:33;9.68;;;1.10;;
82900;SDS011;72673;50.822;3.280;2024-03-23T12:07:17;7.07;;;1.08;;
82900;SDS011;72673;50.822;3.280;2024-03-23T12:09:47;9.82;;;1.52;;
82900;SDS011;72673;50.822;3.280;2024-03-23T12:12:29;3.53;;;1.00;;
82900;SDS011;72673;50.822;3.280;2024-03-23T12:15:01;6.43;;;1.40;;
82900;SDS011;72673;50.822;3.280;2024-03-23T12:17:28;8.70;;;0.98;;
82900;SDS011;72673;50.822;3.280;2024-03-23T12:19:54;4.65;;;0.88;;
82900;SDS011;72673;50.822;3.280;2024-03-23T12:22:23;4.32;;;1.00;;
82900;SDS011;72673;50.822;3.280;2024-03-23T12:24:49;5.63;;;0.93;;
82900;SDS011;72673;50.822;3.280;2024-03-23T12:27:18;9.75;;;1.00;;
82900;SDS011;72673;50.822;3.280;2024-03-23T12:29:44;5.28;;;0.85;;
82900;SDS011;72673;50.822;3.280;2024-03-23T12:32:12;5.85;;;0.80;;
82900;SDS011;72673;50.822;3.280;2024-03-23T12:34:38;7.07;;;1.00;;
82900;SDS011;72673;50.822;3.280;2024-03-23T12:37:04;5.40;;;1.10;;
82900;SDS011;72673;50.822;3.280;2024-03-23T12:39:31;6.32;;;1.00;;
82900;SDS011;72673;50.822;3.280;2024-03-23T12:41:57;11.10;;;1.60;;
82900;SDS011;72673;50.822;3.280;2024-03-23T12:44:22;9.88;;;1.35;;
82900;SDS011;72673;50.822;3.280;2024-03-23T12:46:48;9.52;;;1.17;;
82900;SDS011;72673;50.822;3.280;2024-03-23T12:49:13;3.55;;;1.10;;
82900;SDS011;72673;50.822;3.280;2024-03-23T12:51:39;5.00;;;0.90;;
82900;SDS011;72673;50.822;3.280;2024-03-23T12:54:18;4.45;;;1.38;;
82900;SDS011;72673;50.822;3.280;2024-03-23T12:56:45;1.48;;;0.90;;
82900;SDS011;72673;50.822;3.280;2024-03-23T12:59:11;9.15;;;1.70;;
82900;SDS011;72673;50.822;3.280;2024-03-23T13:01:37;5.78;;;1.00;;
82900;SDS011;72673;50.822;3.280;2024-03-23T13:04:03;4.95;;;1.05;;
82900;SDS011;72673;50.822;3.280;2024-03-23T13:06:29;5.97;;;1.30;;
82900;SDS011;72673;50.822;3.280;2024-03-23T13:08:59;8.35;;;1.80;;
82900;SDS011;72673;50.822;3.280;2024-03-23T13:11:28;6.35;;;1.17;;
82900;SDS011;72673;50.822;3.280;2024-03-23T13:13:54;4.15;;;0.65;;
82900;SDS011;72673;50.822;3.280;2024-03-23T13:16:23;6.28;;;1.08;;
82900;SDS011;72673;50.822;3.280;2024-03-23T13:18:49;3.60;;;1.20;;
82900;SDS011;72673;50.822;3.280;2024-03-23T13:21:15;4.43;;;0.82;;
82900;SDS011;72673;50.822;3.280;2024-03-23T13:23:41;3.65;;;1.00;;
82900;SDS011;72673;50.822;3.280;2024-03-23T13:26:08;5.15;;;0.80;;
82900;SDS011;72673;50.822;3.280;2024-03-23T13:28:34;3.97;;;0.70;;
82900;SDS011;72673;50.822;3.280;2024-03-23T13:31:01;6.30;;;0.88;;
82900;SDS011;72673;50.822;3.280;2024-03-23T13:33:28;5.60;;;1.10;;
82900;SDS011;72673;50.822;3.280;2024-03-23T13:35:55;5.28;;;1.13;;
82900;SDS011;72673;50.822;3.280;2024-03-23T13:38:21;6.28;;;1.10;;
82900;SDS011;72673;50.822;3.280;2024-03-23T13:43:21;7.53;;;0.90;;
82900;SDS011;72673;50.822;3.280;2024-03-23T13:45:48;13.07;;;1.27;;
82900;SDS011;72673;50.822;3.280;2024-03-23T13:48:16;6.35;;;0.88;;
82900;SDS011;72673;50.822;3.280;2024-03-23T13:50:43;10.32;;;2.28;;
82900;SDS011;72673;50.822;3.280;2024-03-23T13:53:08;6.78;;;1.13;;
82900;SDS011;72673;50.822;3.280;2024-03-23T13:55:34;3.47;;;0.73;;
82900;SDS011;72673;50.822;3.280;2024-03-23T13:57:59;6.00;;;1.00;;
82900;SDS011;72673;50.822;3.280;2024-03-23T14:00:25;3.38;;;0.90;;
82900;SDS011;72673;50.822;3.280;2024-03-23T14:02:51;8.80;;;1.27;;
82900;SDS011;72673;50.822;3.280;2024-03-23T14:05:17;3.15;;;0.90;;
82900;SDS011;72673;50.822;3.280;2024-03-23T14:07:42;6.68;;;1.27;;
82900;SDS011;72673;50.822;3.280;2024-03-23T14:10:08;4.88;;;1.20;;
82900;SDS011;72673;50.822;3.280;2024-03-23T14:12:37;6.13;;;1.25;;
82900;SDS011;72673;50.822;3.280;2024-03-23T14:15:06;5.63;;;1.27;;
82900;SDS011;72673;50.822;3.280;2024-03-23T14:17:31;3.45;;;1.05;;
82900;SDS011;72673;50.822;3.280;2024-03-23T14:19:57;4.40;;;0.93;;
82900;SDS011;72673;50.822;3.280;2024-03-23T14:22:26;6.75;;;1.33;;
82900;SDS011;72673;50.822;3.280;2024-03-23T14:24:54;4.07;;;1.20;;
82900;SDS011;72673;50.822;3.280;2024-03-23T14:27:20;4.72;;;1.10;;
82900;SDS011;72673;50.822;3.280;2024-03-23T14:29:49;3.55;;;1.38;;
82900;SDS011;72673;50.822;3.280;2024-03-23T14:32:14;3.63;;;1.10;;
82900;SDS011;72673;50.822;3.280;2024-03-23T14:34:41;6.70;;;0.73;;
82900;SDS011;72673;50.822;3.280;2024-03-23T14:37:06;4.47;;;1.00;;
82900;SDS011;72673;50.822;3.280;2024-03-23T14:39:32;5.50;;;1.08;;
82900;SDS011;72673;50.822;3.280;2024-03-23T14:42:04;3.35;;;0.82;;
82900;SDS011;72673;50.822;3.280;2024-03-23T14:44:31;4.90;;;1.45;;
82900;SDS011;72673;50.822;3.280;2024-03-23T14:46:57;2.05;;;0.55;;
82900;SDS011;72673;50.822;3.280;2024-03-23T14:49:22;2.80;;;0.90;;
82900;SDS011;72673;50.822;3.280;2024-03-23T14:51:49;4.18;;;0.80;;
82900;SDS011;72673;50.822;3.280;2024-03-23T14:54:15;5.85;;;0.80;;
82900;SDS011;72673;50.822;3.280;2024-03-23T14:56:40;6.30;;;1.17;;
82900;SDS011;72673;50.822;3.280;2024-03-23T14:59:06;3.13;;;0.77;;
82900;SDS011;72673;50.822;3.280;2024-03-23T15:01:32;8.45;;;1.48;;
82900;SDS011;72673;50.822;3.280;2024-03-23T15:03:59;4.30;;;1.05;;
82900;SDS011;72673;50.822;3.280;2024-03-23T15:06:25;4.45;;;1.30;;
82900;SDS011;72673;50.822;3.280;2024-03-23T15:08:51;7.45;;;1.27;;
82900;SDS011;72673;50.822;3.280;2024-03-23T15:11:16;3.05;;;0.90;;
82900;SDS011;72673;50.822;3.280;2024-03-23T15:13:44;3.95;;;0.88;;
82900;SDS011;72673;50.822;3.280;2024-03-23T15:16:10;3.28;;;0.95;;
82900;SDS011;72673;50.822;3.280;2024-03-23T15:18:36;4.65;;;1.00;;
82900;SDS011;72673;50.822;3.280;2024-03-23T15:21:02;10.20;;;1.40;;
82900;SDS011;72673;50.822;3.280;2024-03-23T15:23:32;6.57;;;1.20;;
82900;SDS011;72673;50.822;3.280;2024-03-23T15:25:59;5.57;;;1.02;;
82900;SDS011;72673;50.822;3.280;2024-03-23T15:28:26;6.15;;;1.48;;
82900;SDS011;72673;50.822;3.280;2024-03-23T15:31:02;4.60;;;1.33;;
82900;SDS011;72673;50.822;3.280;2024-03-23T15:33:37;8.30;;;1.63;;
82900;SDS011;72673;50.822;3.280;2024-03-23T15:36:04;9.48;;;1.00;;
82900;SDS011;72673;50.822;3.280;2024-03-23T15:38:31;7.82;;;1.42;;
82900;SDS011;72673;50.822;3.280;2024-03-23T15:40:57;7.28;;;1.08;;
82900;SDS011;72673;50.822;3.280;2024-03-23T15:43:25;7.55;;;1.25;;
82900;SDS011;72673;50.822;3.280;2024-03-23T15:45:58;6.03;;;1.02;;
82900;SDS011;72673;50.822;3.280;2024-03-23T15:48:25;7.82;;;1.38;;